Gurleyville, Connecticut
Current Conditions -  °F | °C
As of 10:52 AM on Sunday 25 Jan 2015 (Local Time) from KIJD Reporting Station
Overcast Overcast  
Wind Chill: -1°   Ceiling: 3400
Heat Index:   Visibility: 10mi
Dew Point: -4°   Wind: 7mph
Humidity: 62%   Direction: 300°WNW
Pressure: 29.68"   Gusts: 17mph
Location:  41.8004°N, 72.2476°W
Report Text: KIJD 251552Z AUTO 30006G15KT 10SM BKN034 OVC046 02/M04 A2968 RMK AO2 SLP051 T00221044 $
Loading
Personal Weather Stations






























Interactive Weather Map New forecast layout! Learn more

10-Day Weather Forecast

Advertisements
Track Severe Weather on mobile